Time;durP1;ratioP1;P1;durP2;ratioP2;P2;SDS_P1;SDS_P2;PMS_P1;PMS_P2;Temp;Humidity;BMP_temperature;BMP_pressure;BME280_temperature;BME280_humidity;BME280_pressure;Samples;Min_cycle;Max_cycle;Signal;HPM_P1;HPM_P2
2022/12/19 00:02:42;;;;;;;9.73;4.07;;;;;;;;;;10444362;23;20807;-65
2022/12/19 00:07:42;;;;;;;10.87;3.73;;;;;;;;;;10448884;28;21246;-64
2022/12/19 00:12:42;;;;;;;8.33;4.63;;;;;;;;;;10448928;28;20207;-65
2022/12/19 00:17:42;;;;;;;9.60;5.20;;;;;;;;;;10448956;28;20434;-64
2022/12/19 00:22:43;;;;;;;11.43;5.40;;;;;;;;;;10448113;28;20204;-64
2022/12/19 00:27:43;;;;;;;7.83;4.47;;;;;;;;;;10448717;28;20184;-64
2022/12/19 00:32:43;;;;;;;12.70;6.23;;;;;;;;;;10448448;28;20306;-64
2022/12/19 00:37:44;;;;;;;14.43;6.93;;;;;;;;;;10447289;28;20337;-64
2022/12/19 00:42:44;;;;;;;12.23;6.73;;;;;;;;;;10447037;28;20290;-64
2022/12/19 00:47:44;;;;;;;13.67;7.73;;;;;;;;;;10447219;28;20423;-64
2022/12/19 00:52:44;;;;;;;13.63;6.40;;;;;;;;;;10447410;28;20200;-64
2022/12/19 00:57:45;;;;;;;13.43;5.77;;;;;;;;;;10446821;28;20552;-64
2022/12/19 01:02:45;;;;;;;12.67;6.80;;;;;;;;;;10447072;28;20224;-64
2022/12/19 01:07:45;;;;;;;16.83;7.03;;;;;;;;;;10446849;28;20580;-63
2022/12/19 01:12:46;;;;;;;16.50;7.23;;;;;;;;;;10446562;28;20203;-64
2022/12/19 01:17:47;;;;;;;15.90;6.47;;;;;;;;;;10447123;28;20184;-64
2022/12/19 01:22:47;;;;;;;17.70;7.80;;;;;;;;;;10445872;28;20446;-64
2022/12/19 01:27:47;;;;;;;17.67;7.10;;;;;;;;;;10427782;28;20196;-64
2022/12/19 01:32:48;;;;;;;13.30;6.03;;;;;;;;;;10450329;28;20298;-64
2022/12/19 01:37:49;;;;;;;17.90;9.10;;;;;;;;;;10435636;28;20187;-64
2022/12/19 01:42:50;;;;;;;16.33;8.60;;;;;;;;;;10453828;28;20211;-61
2022/12/19 01:47:52;;;;;;;13.93;6.90;;;;;;;;;;10435925;28;20180;-64
2022/12/19 01:52:52;;;;;;;17.03;6.47;;;;;;;;;;10435225;28;20747;-64
2022/12/19 01:57:54;;;;;;;17.83;8.30;;;;;;;;;;10435381;28;20253;-64
2022/12/19 02:03:04;;;;;;;13.33;6.57;;;;;;;;;;10451067;28;20296;-64
2022/12/19 02:08:06;;;;;;;21.03;8.93;;;;;;;;;;10434756;28;20191;-64
2022/12/19 02:13:06;;;;;;;18.27;8.87;;;;;;;;;;10434900;28;20214;-64
2022/12/19 02:18:09;;;;;;;16.83;7.57;;;;;;;;;;10452586;28;20711;-64
2022/12/19 02:23:23;;;;;;;14.57;7.47;;;;;;;;;;10451827;28;20595;-63
2022/12/19 02:28:38;;;;;;;20.40;7.80;;;;;;;;;;10433739;28;20194;-63
2022/12/19 02:33:52;;;;;;;11.53;5.77;;;;;;;;;;10434207;28;20218;-63
2022/12/19 02:38:57;;;;;;;13.50;6.60;;;;;;;;;;10433982;28;20740;-61
2022/12/19 02:43:57;;;;;;;10.57;5.33;;;;;;;;;;10432860;28;20203;-63
2022/12/19 02:49:00;;;;;;;18.37;7.20;;;;;;;;;;10433579;28;20198;-63
2022/12/19 02:54:00;;;;;;;14.70;7.13;;;;;;;;;;10433806;28;20216;-64
2022/12/19 02:59:00;;;;;;;10.03;5.20;;;;;;;;;;10433649;28;20305;-63
2022/12/19 03:04:15;;;;;;;10.00;4.87;;;;;;;;;;10432350;28;20245;-63
2022/12/19 03:09:22;;;;;;;12.00;5.13;;;;;;;;;;10433685;28;20442;-63
2022/12/19 03:14:22;;;;;;;13.47;5.33;;;;;;;;;;10450544;28;20204;-62
2022/12/19 03:19:26;;;;;;;8.83;4.63;;;;;;;;;;10431041;28;20290;-62
2022/12/19 03:24:27;;;;;;;11.90;5.73;;;;;;;;;;10448230;28;20677;-63
2022/12/19 03:29:37;;;;;;;15.43;8.03;;;;;;;;;;10449062;28;20210;-62
2022/12/19 03:34:39;;;;;;;14.70;5.93;;;;;;;;;;10447772;28;20233;-62
2022/12/19 03:39:41;;;;;;;13.23;7.03;;;;;;;;;;10449457;28;20305;-61
2022/12/19 03:44:42;;;;;;;18.03;6.90;;;;;;;;;;10448153;28;20756;-61
2022/12/19 03:49:44;;;;;;;15.33;7.97;;;;;;;;;;10448588;28;20198;-61
2022/12/19 03:55:07;;;;;;;10.00;4.93;;;;;;;;;;10447708;28;20210;-62
2022/12/19 04:00:10;;;;;;;13.80;6.73;;;;;;;;;;10435164;28;20244;-62
2022/12/19 04:05:23;;;;;;;11.87;5.67;;;;;;;;;;10443822;28;20283;-62
2022/12/19 04:10:25;;;;;;;14.47;6.67;;;;;;;;;;10441696;28;20252;-62
2022/12/19 04:15:32;;;;;;;8.53;4.90;;;;;;;;;;10440742;28;20300;-62
2022/12/19 04:20:35;;;;;;;13.97;6.77;;;;;;;;;;10441581;28;20582;-62
2022/12/19 04:25:37;;;;;;;15.00;7.00;;;;;;;;;;10440615;28;20318;-62
2022/12/19 04:30:39;;;;;;;15.17;6.93;;;;;;;;;;10441308;28;20296;-62
2022/12/19 04:35:39;;;;;;;11.37;6.70;;;;;;;;;;10440078;28;20656;-63
2022/12/19 04:40:39;;;;;;;12.70;6.77;;;;;;;;;;10438670;28;20268;-62
2022/12/19 04:45:40;;;;;;;16.20;6.50;;;;;;;;;;10439662;28;20446;-62
2022/12/19 04:50:41;;;;;;;10.30;5.20;;;;;;;;;;10440535;28;20205;-62
2022/12/19 04:55:43;;;;;;;14.80;7.73;;;;;;;;;;10440459;28;20206;-62
2022/12/19 05:00:43;;;;;;;18.23;8.67;;;;;;;;;;10439862;28;20645;-62
2022/12/19 05:05:43;;;;;;;22.13;9.50;;;;;;;;;;10446546;28;20321;-61
2022/12/19 05:10:43;;;;;;;14.93;6.93;;;;;;;;;;10447361;28;20214;-62
2022/12/19 05:15:43;;;;;;;15.47;8.10;;;;;;;;;;10446782;28;20290;-62
2022/12/19 05:20:46;;;;;;;16.70;8.00;;;;;;;;;;10447262;28;20508;-63
2022/12/19 05:25:47;;;;;;;19.50;8.97;;;;;;;;;;10450160;28;20220;-62
2022/12/19 05:30:47;;;;;;;19.43;9.07;;;;;;;;;;10446703;28;20198;-63
2022/12/19 05:35:48;;;;;;;16.00;8.90;;;;;;;;;;10446795;28;20190;-63
2022/12/19 05:40:48;;;;;;;14.37;6.63;;;;;;;;;;10446562;28;21062;-61
2022/12/19 05:45:48;;;;;;;14.30;6.87;;;;;;;;;;10446044;28;20189;-62
2022/12/19 05:50:49;;;;;;;15.60;7.13;;;;;;;;;;10446527;28;20672;-63
2022/12/19 05:55:49;;;;;;;16.43;6.70;;;;;;;;;;10444774;28;20490;-62
2022/12/19 06:00:49;;;;;;;16.63;7.37;;;;;;;;;;10446343;28;20241;-62
2022/12/19 06:05:50;;;;;;;17.20;7.23;;;;;;;;;;10446110;28;20618;-62
2022/12/19 06:10:50;;;;;;;20.20;11.93;;;;;;;;;;10444060;28;20440;-62
2022/12/19 06:15:55;;;;;;;20.77;9.93;;;;;;;;;;10445680;28;20194;-60
2022/12/19 06:20:56;;;;;;;20.87;9.17;;;;;;;;;;10450825;28;20583;-63
2022/12/19 06:25:57;;;;;;;22.17;11.83;;;;;;;;;;10453230;28;20189;-62
2022/12/19 06:30:58;;;;;;;27.37;10.70;;;;;;;;;;10450320;28;20202;-61
2022/12/19 06:35:59;;;;;;;21.53;11.43;;;;;;;;;;10452820;28;20183;-63
2022/12/19 06:46:18;;;;;;;26.63;11.17;;;;;;;;;;10452078;28;20186;-62
2022/12/19 06:51:18;;;;;;;22.33;9.43;;;;;;;;;;10450231;28;20222;-62
2022/12/19 06:56:19;;;;;;;20.27;9.00;;;;;;;;;;10451765;28;20207;-63
2022/12/19 07:01:20;;;;;;;17.20;6.97;;;;;;;;;;10452345;28;20568;-62
2022/12/19 07:06:21;;;;;;;22.13;10.97;;;;;;;;;;10451826;28;20205;-62
2022/12/19 07:11:21;;;;;;;27.57;8.60;;;;;;;;;;10451717;28;20214;-62
2022/12/19 07:16:22;;;;;;;16.00;7.17;;;;;;;;;;10451363;28;20248;-63
2022/12/19 07:21:23;;;;;;;20.47;10.70;;;;;;;;;;10450205;28;20469;-63
2022/12/19 07:26:23;;;;;;;23.73;11.30;;;;;;;;;;10449908;28;20190;-63
2022/12/19 07:31:23;;;;;;;25.63;13.57;;;;;;;;;;10450299;28;20446;-62
2022/12/19 07:36:23;;;;;;;20.50;10.10;;;;;;;;;;10450344;28;20460;-63
2022/12/19 07:41:23;;;;;;;19.90;8.87;;;;;;;;;;10447914;28;20225;-65
2022/12/19 07:46:26;;;;;;;22.77;11.63;;;;;;;;;;10450180;28;20429;-64
2022/12/19 07:51:26;;;;;;;20.17;9.83;;;;;;;;;;10449888;28;20537;-64
2022/12/19 07:56:27;;;;;;;19.43;9.00;;;;;;;;;;10442376;28;20807;-63
2022/12/19 08:01:27;;;;;;;24.33;11.65;;;;;;;;;;10445024;28;20506;-63
2022/12/19 08:06:27;;;;;;;21.60;9.88;;;;;;;;;;10445489;28;20231;-63
2022/12/19 08:11:28;;;;;;;20.10;9.13;;;;;;;;;;10443188;28;20211;-61
2022/12/19 08:16:29;;;;;;;23.87;10.60;;;;;;;;;;10444292;28;20218;-60
2022/12/19 08:21:29;;;;;;;20.57;9.30;;;;;;;;;;10433054;28;20224;-63
2022/12/19 08:26:29;;;;;;;23.58;10.88;;;;;;;;;;10445965;28;20430;-64
2022/12/19 08:31:30;;;;;;;24.90;10.20;;;;;;;;;;10444185;28;20211;-63
2022/12/19 08:36:31;;;;;;;22.10;11.40;;;;;;;;;;10443617;28;20330;-64
2022/12/19 08:41:31;;;;;;;30.40;11.80;;;;;;;;;;10440189;28;20701;-64
2022/12/19 08:46:32;;;;;;;25.67;12.30;;;;;;;;;;10440773;28;20187;-62
2022/12/19 08:51:32;;;;;;;28.60;13.80;;;;;;;;;;10442495;28;20453;-65
2022/12/19 08:56:32;;;;;;;30.05;14.55;;;;;;;;;;10439071;28;20560;-61
2022/12/19 09:01:32;;;;;;;25.87;11.60;;;;;;;;;;10444135;28;20242;-65
2022/12/19 09:06:33;;;;;;;28.30;11.53;;;;;;;;;;10431948;28;20584;-63
2022/12/19 09:11:33;;;;;;;31.60;15.90;;;;;;;;;;10436091;28;20207;-63
2022/12/19 09:16:34;;;;;;;34.70;15.03;;;;;;;;;;10438656;28;20195;-63
2022/12/19 09:21:34;;;;;;;25.58;10.93;;;;;;;;;;10438815;28;20545;-63
2022/12/19 09:26:35;;;;;;;32.00;13.87;;;;;;;;;;10437653;28;20196;-62
2022/12/19 09:31:38;;;;;;;28.37;11.57;;;;;;;;;;10437947;28;20219;-62
2022/12/19 09:36:38;;;;;;;25.90;13.47;;;;;;;;;;10440401;28;20531;-64
2022/12/19 09:41:41;;;;;;;31.93;16.13;;;;;;;;;;10441854;28;20216;-64
2022/12/19 09:46:53;;;;;;;32.07;17.10;;;;;;;;;;10438968;28;20462;-63
2022/12/19 09:52:03;;;;;;;27.83;12.77;;;;;;;;;;10439539;28;20204;-62
2022/12/19 09:57:08;;;;;;;23.13;11.37;;;;;;;;;;10445482;28;20200;-64
2022/12/19 10:02:17;;;;;;;29.10;11.50;;;;;;;;;;10442468;28;20240;-63
2022/12/19 10:07:18;;;;;;;31.23;14.70;;;;;;;;;;10446915;28;20195;-64
2022/12/19 10:12:39;;;;;;;35.37;16.53;;;;;;;;;;10446868;28;20767;-65
2022/12/19 10:17:58;;;;;;;27.77;14.13;;;;;;;;;;10443194;28;20291;-64
2022/12/19 10:22:58;;;;;;;33.07;19.43;;;;;;;;;;10483314;28;20654;-63
2022/12/19 10:28:10;;;;;;;31.23;12.55;;;;;;;;;;10492272;28;20195;-64
2022/12/19 10:33:13;;;;;;;35.77;16.67;;;;;;;;;;10475257;28;20254;-63
2022/12/19 10:38:19;;;;;;;34.83;14.77;;;;;;;;;;10449450;28;20208;-63
2022/12/19 10:43:34;;;;;;;32.20;13.27;;;;;;;;;;10450636;28;20246;-63
2022/12/19 10:48:34;;;;;;;36.60;18.20;;;;;;;;;;10449446;28;20199;-62
2022/12/19 10:53:34;;;;;;;28.00;13.33;;;;;;;;;;10449154;28;20725;-63
2022/12/19 10:58:35;;;;;;;39.30;15.90;;;;;;;;;;10451058;28;20474;-62
2022/12/19 11:03:37;;;;;;;34.37;15.17;;;;;;;;;;10447848;28;20301;-62
2022/12/19 11:08:37;;;;;;;39.87;18.87;;;;;;;;;;10448506;28;20698;-64
2022/12/19 11:13:42;;;;;;;36.07;15.57;;;;;;;;;;10450943;28;20214;-64
2022/12/19 11:18:44;;;;;;;29.10;11.43;;;;;;;;;;10448388;28;20580;-64
2022/12/19 11:23:55;;;;;;;34.33;16.20;;;;;;;;;;10448926;28;20223;-63
2022/12/19 11:28:58;;;;;;;28.47;14.00;;;;;;;;;;10449331;28;20196;-64
2022/12/19 11:34:05;;;;;;;32.50;13.37;;;;;;;;;;10448342;28;20214;-65
2022/12/19 11:39:09;;;;;;;32.63;14.07;;;;;;;;;;10446854;28;20583;-64
2022/12/19 11:44:09;;;;;;;37.23;15.93;;;;;;;;;;10448008;28;20208;-63
2022/12/19 11:49:12;;;;;;;35.80;15.47;;;;;;;;;;10448344;28;20204;-63
2022/12/19 11:54:35;;;;;;;34.13;14.13;;;;;;;;;;10447130;28;20200;-63
2022/12/19 11:59:38;;;;;;;32.83;16.20;;;;;;;;;;10446716;28;20223;-63
2022/12/19 12:04:57;;;;;;;31.73;16.40;;;;;;;;;;10439939;23;20308;-63
2022/12/19 12:10:02;;;;;;;36.00;15.47;;;;;;;;;;10363514;28;20207;-63
2022/12/19 12:15:08;;;;;;;32.47;12.83;;;;;;;;;;10363047;28;20308;-64
2022/12/19 12:20:24;;;;;;;32.03;12.47;;;;;;;;;;10365881;28;20221;-62
2022/12/19 12:25:30;;;;;;;26.63;11.60;;;;;;;;;;10363826;28;20233;-63
2022/12/19 12:30:38;;;;;;;30.23;10.40;;;;;;;;;;10363499;28;20285;-63
2022/12/19 12:35:44;;;;;;;25.03;11.63;;;;;;;;;;10362487;28;20209;-64
2022/12/19 12:41:08;;;;;;;24.40;12.23;;;;;;;;;;10360674;28;20213;-60
2022/12/19 12:46:13;;;;;;;24.33;11.93;;;;;;;;;;10359145;28;20212;-63
2022/12/19 12:51:13;;;;;;;27.40;11.43;;;;;;;;;;10361418;28;20189;-61
2022/12/19 12:56:16;;;;;;;28.77;11.67;;;;;;;;;;10362721;28;20213;-64
2022/12/19 13:01:28;;;;;;;25.30;10.40;;;;;;;;;;10363149;28;20217;-64
2022/12/19 13:06:31;;;;;;;31.67;15.17;;;;;;;;;;10352270;28;20601;-64
2022/12/19 13:16:55;;;;;;;25.70;13.53;;;;;;;;;;10356864;28;20209;-64
2022/12/19 13:22:07;;;;;;;28.93;14.30;;;;;;;;;;10358081;28;20596;-64
2022/12/19 13:27:34;;;;;;;27.27;13.87;;;;;;;;;;10359665;28;20710;-63
2022/12/19 13:32:37;;;;;;;27.20;13.20;;;;;;;;;;10361738;28;20205;-62
2022/12/19 13:37:37;;;;;;;30.67;15.03;;;;;;;;;;10365683;28;20212;-65
2022/12/19 13:48:03;;;;;;;19.17;10.17;;;;;;;;;;10365314;28;20195;-66
2022/12/19 13:53:17;;;;;;;27.40;14.53;;;;;;;;;;10364186;28;20188;-66
2022/12/19 13:58:25;;;;;;;31.47;16.03;;;;;;;;;;10363462;28;20283;-65
2022/12/19 14:03:32;;;;;;;25.47;14.57;;;;;;;;;;10364750;28;20237;-61
2022/12/19 14:08:32;;;;;;;20.47;9.73;;;;;;;;;;10364959;28;20189;-62
2022/12/19 14:18:55;;;;;;;22.53;11.43;;;;;;;;;;10360939;28;20223;-64
2022/12/19 14:24:14;;;;;;;28.50;11.87;;;;;;;;;;10361840;28;20280;-61
2022/12/19 14:29:18;;;;;;;26.03;12.67;;;;;;;;;;10361103;28;20651;-65
2022/12/19 14:34:20;;;;;;;20.10;10.70;;;;;;;;;;10363063;28;20197;-66
2022/12/19 14:39:23;;;;;;;24.93;13.50;;;;;;;;;;10364259;28;20354;-65
2022/12/19 14:44:40;;;;;;;21.37;10.53;;;;;;;;;;10362279;28;20213;-64
2022/12/19 14:49:40;;;;;;;27.03;12.73;;;;;;;;;;10361119;28;20612;-64
2022/12/19 14:54:40;;;;;;;24.07;14.03;;;;;;;;;;10362534;28;20278;-62
2022/12/19 14:59:44;;;;;;;20.87;11.33;;;;;;;;;;10362881;28;20217;-63
2022/12/19 15:04:46;;;;;;;31.07;15.93;;;;;;;;;;10356684;28;20244;-63
2022/12/19 15:09:49;;;;;;;24.57;12.23;;;;;;;;;;10358786;28;20212;-62
2022/12/19 15:14:59;;;;;;;28.57;14.00;;;;;;;;;;10361046;28;20213;-63
2022/12/19 15:20:00;;;;;;;30.60;14.53;;;;;;;;;;10358050;28;20235;-63
2022/12/19 15:25:00;;;;;;;25.23;12.73;;;;;;;;;;10357871;28;20205;-61
2022/12/19 15:30:00;;;;;;;27.87;11.27;;;;;;;;;;10358412;28;20201;-62
2022/12/19 15:35:00;;;;;;;27.00;12.40;;;;;;;;;;10355180;28;20292;-61
2022/12/19 15:40:00;;;;;;;37.07;14.93;;;;;;;;;;10358378;28;20480;-60
2022/12/19 15:45:01;;;;;;;55.80;26.23;;;;;;;;;;10353243;28;20268;-61
2022/12/19 15:50:13;;;;;;;28.43;14.17;;;;;;;;;;10325354;28;20193;-60
2022/12/19 15:55:15;;;;;;;26.03;12.03;;;;;;;;;;10354979;28;20216;-62
2022/12/19 16:00:18;;;;;;;26.20;13.10;;;;;;;;;;10356653;28;20597;-62
2022/12/19 16:05:19;;;;;;;22.80;11.83;;;;;;;;;;10346836;28;20232;-63
2022/12/19 16:10:20;;;;;;;23.03;11.17;;;;;;;;;;10348822;28;20185;-61
2022/12/19 16:15:24;;;;;;;28.80;13.37;;;;;;;;;;10359499;28;20275;-61
2022/12/19 16:20:26;;;;;;;22.83;11.83;;;;;;;;;;10357907;28;20225;-61
2022/12/19 16:25:46;;;;;;;19.63;10.90;;;;;;;;;;10355248;28;20214;-61
2022/12/19 16:30:49;;;;;;;48.20;23.47;;;;;;;;;;10357125;28;20318;-59
2022/12/19 16:35:50;;;;;;;28.57;14.27;;;;;;;;;;10358169;28;20340;-59
2022/12/19 16:40:50;;;;;;;21.90;11.47;;;;;;;;;;10358165;28;20216;-60
2022/12/19 16:45:51;;;;;;;25.80;14.97;;;;;;;;;;10357463;28;20193;-61
2022/12/19 16:50:51;;;;;;;33.03;12.10;;;;;;;;;;10357485;28;20308;-60
2022/12/19 16:55:53;;;;;;;30.87;12.80;;;;;;;;;;10355951;28;21013;-60
2022/12/19 17:00:53;;;;;;;23.97;12.53;;;;;;;;;;10355797;28;20998;-60
2022/12/19 17:05:54;;;;;;;22.23;10.10;;;;;;;;;;10355532;28;20229;-61
2022/12/19 17:10:54;;;;;;;29.30;16.20;;;;;;;;;;10355755;28;20225;-62
2022/12/19 17:16:03;;;;;;;19.83;10.27;;;;;;;;;;10363731;28;20279;-61
2022/12/19 17:21:03;;;;;;;23.23;9.47;;;;;;;;;;10365449;28;20213;-61
2022/12/19 17:26:03;;;;;;;22.70;12.17;;;;;;;;;;10364446;28;20267;-60
2022/12/19 17:31:11;;;;;;;30.27;17.07;;;;;;;;;;10366077;28;20829;-60
2022/12/19 17:36:13;;;;;;;26.33;14.90;;;;;;;;;;10365311;28;20801;-63
2022/12/19 17:41:15;;;;;;;27.93;12.70;;;;;;;;;;10366048;28;20624;-63
2022/12/19 17:46:17;;;;;;;19.33;10.13;;;;;;;;;;10363434;28;20221;-62
2022/12/19 17:51:18;;;;;;;23.13;11.23;;;;;;;;;;10362779;28;20660;-62
2022/12/19 17:56:19;;;;;;;22.83;11.03;;;;;;;;;;10363895;28;20755;-63
2022/12/19 18:01:20;;;;;;;24.73;12.73;;;;;;;;;;10364144;28;20209;-62
2022/12/19 18:06:21;;;;;;;24.33;11.27;;;;;;;;;;10419874;23;20236;-62
2022/12/19 18:11:22;;;;;;;24.13;12.73;;;;;;;;;;10446354;28;20192;-62
2022/12/19 18:16:27;;;;;;;21.63;11.50;;;;;;;;;;10450036;28;20454;-62
2022/12/19 18:21:27;;;;;;;22.37;12.87;;;;;;;;;;10452275;28;20258;-62
2022/12/19 18:26:27;;;;;;;20.50;11.77;;;;;;;;;;10452952;28;20734;-62
2022/12/19 18:31:27;;;;;;;21.07;10.47;;;;;;;;;;10453029;28;20241;-63
2022/12/19 18:36:28;;;;;;;22.83;12.57;;;;;;;;;;10451947;28;20208;-63
2022/12/19 18:41:29;;;;;;;21.50;11.67;;;;;;;;;;10452527;28;20978;-63
2022/12/19 18:46:30;;;;;;;18.30;8.53;;;;;;;;;;10450798;28;20218;-63
2022/12/19 18:51:30;;;;;;;20.67;12.27;;;;;;;;;;10451995;28;20176;-63
2022/12/19 18:56:31;;;;;;;17.30;9.87;;;;;;;;;;10451433;28;20204;-63
2022/12/19 19:01:31;;;;;;;28.60;11.60;;;;;;;;;;10451109;28;20583;-63
2022/12/19 19:06:31;;;;;;;14.37;8.80;;;;;;;;;;10451195;28;20242;-63
2022/12/19 19:11:32;;;;;;;20.50;12.20;;;;;;;;;;10450935;28;20676;-63
2022/12/19 19:16:32;;;;;;;19.87;10.60;;;;;;;;;;10450113;28;20219;-61
2022/12/19 19:21:33;;;;;;;20.60;11.13;;;;;;;;;;10451284;28;20706;-60
2022/12/19 19:26:33;;;;;;;20.23;12.00;;;;;;;;;;10450086;28;20239;-62
2022/12/19 19:31:35;;;;;;;23.43;12.70;;;;;;;;;;10429006;28;20271;-62
2022/12/19 19:36:36;;;;;;;26.90;12.47;;;;;;;;;;10408832;28;20644;-62
2022/12/19 19:41:36;;;;;;;21.10;11.40;;;;;;;;;;10408976;28;20232;-61
2022/12/19 19:46:37;;;;;;;28.83;14.63;;;;;;;;;;10408474;28;20219;-62
2022/12/19 19:51:38;;;;;;;24.90;14.30;;;;;;;;;;10408611;28;20202;-62
2022/12/19 19:56:38;;;;;;;27.70;15.57;;;;;;;;;;10408493;28;20631;-63
2022/12/19 20:01:38;;;;;;;28.23;12.47;;;;;;;;;;10407609;28;20278;-62
2022/12/19 20:06:38;;;;;;;34.23;19.10;;;;;;;;;;10408105;28;20271;-63
2022/12/19 20:11:39;;;;;;;36.20;19.47;;;;;;;;;;10407725;28;20447;-63
2022/12/19 20:16:39;;;;;;;31.60;16.53;;;;;;;;;;10406778;28;20508;-64
2022/12/19 20:21:39;;;;;;;32.63;18.10;;;;;;;;;;10408105;28;20227;-64
2022/12/19 20:26:39;;;;;;;35.87;15.87;;;;;;;;;;10406667;28;20192;-64
2022/12/19 20:31:40;;;;;;;31.27;14.93;;;;;;;;;;10407037;28;20797;-64
2022/12/19 20:36:41;;;;;;;32.43;16.90;;;;;;;;;;10405908;28;20204;-64
2022/12/19 20:41:41;;;;;;;25.40;12.37;;;;;;;;;;10407002;28;20219;-64
2022/12/19 20:46:42;;;;;;;25.23;12.97;;;;;;;;;;10405999;28;20707;-63
2022/12/19 20:51:43;;;;;;;31.20;16.55;;;;;;;;;;10406378;28;20185;-65
2022/12/19 20:56:43;;;;;;;24.03;13.50;;;;;;;;;;10406027;28;20295;-64
2022/12/19 21:01:44;;;;;;;38.90;20.37;;;;;;;;;;10405497;28;20227;-64
2022/12/19 21:06:44;;;;;;;30.20;17.13;;;;;;;;;;10406047;28;20240;-64
2022/12/19 21:11:44;;;;;;;35.72;17.05;;;;;;;;;;10405524;28;20271;-61
2022/12/19 21:16:45;;;;;;;32.17;16.20;;;;;;;;;;10405407;28;20595;-62
2022/12/19 21:21:45;;;;;;;28.43;14.17;;;;;;;;;;10405841;28;20482;-61
2022/12/19 21:26:49;;;;;;;35.73;18.00;;;;;;;;;;10404618;28;20204;-62
2022/12/19 21:31:51;;;;;;;27.47;15.50;;;;;;;;;;10406874;28;20279;-64
2022/12/19 21:36:52;;;;;;;30.70;16.63;;;;;;;;;;10406652;28;20213;-62
2022/12/19 21:41:52;;;;;;;32.80;15.13;;;;;;;;;;10406474;28;20208;-64
2022/12/19 21:46:52;;;;;;;34.27;18.37;;;;;;;;;;10405519;28;20211;-64
2022/12/19 21:51:53;;;;;;;28.23;12.27;;;;;;;;;;10413816;28;20578;-62
2022/12/19 21:56:53;;;;;;;33.23;15.23;;;;;;;;;;10412876;28;20291;-60
2022/12/19 22:01:59;;;;;;;25.07;13.67;;;;;;;;;;10441881;28;20473;-61
2022/12/19 22:07:02;;;;;;;27.87;15.67;;;;;;;;;;10442819;28;20418;-62
2022/12/19 22:12:03;;;;;;;35.60;18.47;;;;;;;;;;10452437;28;20180;-62
2022/12/19 22:17:04;;;;;;;32.17;16.20;;;;;;;;;;10453022;28;20212;-61
2022/12/19 22:22:05;;;;;;;29.27;14.13;;;;;;;;;;10455429;28;20212;-60
2022/12/19 22:27:05;;;;;;;29.97;13.93;;;;;;;;;;10454216;28;20303;-61
2022/12/19 22:32:05;;;;;;;37.83;20.10;;;;;;;;;;10453937;28;20299;-61
2022/12/19 22:37:06;;;;;;;28.40;15.83;;;;;;;;;;10454217;28;20215;-61
2022/12/19 22:42:06;;;;;;;30.43;15.63;;;;;;;;;;10453506;28;20222;-62
2022/12/19 22:47:06;;;;;;;30.17;13.63;;;;;;;;;;10453441;28;20728;-63
2022/12/19 22:52:06;;;;;;;28.80;14.23;;;;;;;;;;10454136;28;20223;-60
2022/12/19 22:57:07;;;;;;;28.07;14.20;;;;;;;;;;10452523;28;20208;-63
2022/12/19 23:02:07;;;;;;;30.20;15.33;;;;;;;;;;10452784;28;20230;-63
2022/12/19 23:07:07;;;;;;;37.97;21.60;;;;;;;;;;10449716;28;20235;-63
2022/12/19 23:12:07;;;;;;;32.60;15.37;;;;;;;;;;10452501;28;20668;-63
2022/12/19 23:17:08;;;;;;;24.20;11.73;;;;;;;;;;10452580;28;20199;-63
2022/12/19 23:22:08;;;;;;;30.23;15.67;;;;;;;;;;10451855;28;20215;-63
2022/12/19 23:27:08;;;;;;;23.70;12.53;;;;;;;;;;10452293;28;21171;-62
2022/12/19 23:32:09;;;;;;;26.80;10.10;;;;;;;;;;10451771;28;20582;-63
2022/12/19 23:37:09;;;;;;;25.03;11.63;;;;;;;;;;10451232;28;20208;-61
2022/12/19 23:42:09;;;;;;;34.30;13.73;;;;;;;;;;10451594;28;20974;-61
2022/12/19 23:47:10;;;;;;;34.97;16.30;;;;;;;;;;10451030;28;20415;-62
2022/12/19 23:52:10;;;;;;;24.20;11.07;;;;;;;;;;10450449;28;20184;-60
2022/12/19 23:57:10;;;;;;;24.13;11.20;;;;;;;;;;10449862;28;20693;-61
